PWSweather.com
Personal Weather Stations
Station Observations

SkegnessGB

Lat: 53.147585, Lon: 0.345774

Elevation: 18

Station Type: Fine Offset WH3080

http://www.skegnessweather.info/

High Low Average
Temperature 50.4°F10.2°C 40.1°F4.5°C 45.3°F7.4°C
Dew Point 44.2°F6.8°C 37.7°F3.2°C 41.6°F5.3°C
Winds 18.7 mph 30.1 kmh 0.1 mph 0.2 kmh 5.0 mph S8.0 kmh S
Wind Gusts 19.2 mph30.9 kmh 1.7 mph2.7 kmh 7.0 mph11.3 kmh
Humidity 92% 75% 87%
Pressure 29.14 in986.8 mb 28.72 in972.6 mb -
Precipitation 0.64 in16.3 mm - -
Hour Temp Dew Point Humidity Winds Wind Gusts Pressure Precip Precip Rate Daily Precip Total
12:00 AM 50.4°F10.2°C 42.7°F5.9°C 75% 18.7 mph SSW30.1 kmh SSW 19.2 mph30.9 kmh 29.14 in986.8 mb 0.00 in0.0 mm 0.00 in0.0 mm 0.00 in0.0 mm
12:10 AM 49.8°F9.9°C 42.6°F5.9°C 76% 12.1 mph S19.5 kmh S 18.5 mph29.8 kmh 29.13 in986.5 mb 0.00 in0.0 mm 0.00 in0.0 mm 0.00 in0.0 mm
12:20 AM 49.6°F9.8°C 42.7°F5.9°C 77% 18.4 mph S29.6 kmh S 17.5 mph28.2 kmh 29.12 in986.1 mb 0.00 in0.0 mm 0.00 in0.0 mm 0.00 in0.0 mm
12:30 AM 49.5°F9.7°C 42.5°F5.8°C 77% 12.3 mph SSE19.8 kmh SSE 11.8 mph19.0 kmh 29.11 in985.8 mb 0.00 in0.0 mm 0.00 in0.0 mm 0.00 in0.0 mm
12:40 AM 49.3°F9.6°C 42.0°F5.6°C 76% 11.9 mph S19.2 kmh S 11.8 mph19.0 kmh 29.12 in986.1 mb 0.00 in0.0 mm 0.00 in0.0 mm 0.00 in0.0 mm
12:50 AM 49.1°F9.5°C 42.2°F5.7°C 77% 12.8 mph S20.6 kmh S 12.5 mph20.1 kmh 29.11 in985.8 mb 0.00 in0.0 mm 0.00 in0.0 mm 0.00 in0.0 mm
01:00 AM 49.1°F9.5°C 42.2°F5.7°C 77% 9.4 mph SE15.1 kmh SE 11.8 mph19.0 kmh 29.09 in985.1 mb 0.00 in0.0 mm 0.00 in0.0 mm 0.00 in0.0 mm
01:10 AM 48.9°F9.4°C 42.0°F5.6°C 77% 11.9 mph SE19.2 kmh SE 10.8 mph17.4 kmh 29.09 in985.1 mb 0.00 in0.0 mm 0.00 in0.0 mm 0.00 in0.0 mm
01:20 AM 48.7°F9.3°C 41.8°F5.4°C 77% 8.6 mph S13.8 kmh S 10.8 mph17.4 kmh 29.08 in984.8 mb 0.00 in0.0 mm 0.00 in0.0 mm 0.00 in0.0 mm
01:30 AM 48.7°F9.3°C 42.2°F5.7°C 78% 8.7 mph S14.0 kmh S 10.8 mph17.4 kmh 29.08 in984.8 mb 0.00 in0.0 mm 0.00 in0.0 mm 0.00 in0.0 mm
01:40 AM 48.6°F9.2°C 42.0°F5.6°C 78% 7.4 mph S11.9 kmh S 11.8 mph19.0 kmh 29.08 in984.8 mb 0.00 in0.0 mm 0.00 in0.0 mm 0.00 in0.0 mm
01:50 AM 48.4°F9.1°C 41.8°F5.4°C 78% 7.1 mph S11.4 kmh S 11.8 mph19.0 kmh 29.08 in984.8 mb 0.00 in0.0 mm 0.00 in0.0 mm 0.00 in0.0 mm
02:00 AM 48.0°F8.9°C 41.8°F5.4°C 79% 6.6 mph SSE10.6 kmh SSE 7.6 mph12.2 kmh 29.06 in984.1 mb 0.00 in0.0 mm 0.00 in0.0 mm 0.00 in0.0 mm
02:10 AM 47.8°F8.8°C 41.6°F5.3°C 79% 5.3 mph SSE8.5 kmh SSE 9.1 mph14.6 kmh 29.07 in984.4 mb 0.00 in0.0 mm 0.00 in0.0 mm 0.00 in0.0 mm
02:20 AM 47.7°F8.7°C 41.8°F5.4°C 80% 4.7 mph S7.6 kmh S 9.1 mph14.6 kmh 29.06 in984.1 mb 0.00 in0.0 mm 0.00 in0.0 mm 0.00 in0.0 mm
02:30 AM 47.5°F8.6°C 41.6°F5.3°C 80% 3.7 mph SSE6.0 kmh SSE 7.6 mph12.2 kmh 29.05 in983.7 mb 0.00 in0.0 mm 0.00 in0.0 mm 0.00 in0.0 mm
02:40 AM 47.3°F8.5°C 41.4°F5.2°C 80% 1.3 mph ESE2.1 kmh ESE 4.2 mph6.8 kmh 29.05 in983.7 mb 0.00 in0.0 mm 0.00 in0.0 mm 0.00 in0.0 mm
02:50 AM 47.1°F8.4°C 41.3°F5.2°C 80% 3.4 mph SSE5.5 kmh SSE 4.9 mph7.9 kmh 29.05 in983.7 mb 0.00 in0.0 mm 0.00 in0.0 mm 0.00 in0.0 mm
03:00 AM 47.1°F8.4°C 41.6°F5.3°C 81% 3.6 mph SSE5.8 kmh SSE 4.9 mph7.9 kmh 29.05 in983.7 mb 0.00 in0.0 mm 0.00 in0.0 mm 0.00 in0.0 mm
03:10 AM 47.1°F8.4°C 41.6°F5.3°C 81% 2.0 mph NNE3.2 kmh NNE 4.9 mph7.9 kmh 29.04 in983.4 mb 0.00 in0.0 mm 0.00 in0.0 mm 0.00 in0.0 mm
03:20 AM 46.9°F8.3°C 41.4°F5.2°C 81% 3.3 mph S5.3 kmh S 7.6 mph12.2 kmh 29.04 in983.4 mb 0.00 in0.0 mm 0.00 in0.0 mm 0.00 in0.0 mm
03:30 AM 46.9°F8.3°C 41.4°F5.2°C 81% 1.2 mph S1.9 kmh S 4.2 mph6.8 kmh 29.02 in982.7 mb 0.00 in0.0 mm 0.00 in0.0 mm 0.00 in0.0 mm
03:40 AM 46.8°F8.2°C 41.6°F5.3°C 82% 1.5 mph NNW2.4 kmh NNW 5.9 mph9.5 kmh 29.02 in982.7 mb 0.00 in0.0 mm 0.00 in0.0 mm 0.00 in0.0 mm
03:50 AM 46.6°F8.1°C 41.4°F5.2°C 82% 0.3 mph NNW0.5 kmh NNW 1.7 mph2.7 kmh 29.01 in982.4 mb 0.00 in0.0 mm 0.00 in0.0 mm 0.00 in0.0 mm
04:00 AM 46.4°F8.0°C 41.2°F5.1°C 82% 0.6 mph WSW1.0 kmh WSW 1.7 mph2.7 kmh 29.00 in982.1 mb 0.00 in0.0 mm 0.00 in0.0 mm 0.00 in0.0 mm
04:10 AM 46.2°F7.9°C 41.0°F5.0°C 82% 1.2 mph SW1.9 kmh SW 3.4 mph5.5 kmh 29.00 in982.1 mb 0.01 in0.3 mm 0.06 in1.5 mm 0.01 in0.3 mm
04:20 AM 46.2°F7.9°C 41.0°F5.0°C 82% 1.2 mph E1.9 kmh E 4.2 mph6.8 kmh 29.00 in982.1 mb 0.01 in0.3 mm 0.00 in0.0 mm 0.01 in0.3 mm
04:30 AM 46.2°F7.9°C 41.0°F5.0°C 82% 1.5 mph NW2.4 kmh NW 3.4 mph5.5 kmh 28.99 in981.7 mb 0.01 in0.3 mm 0.00 in0.0 mm 0.01 in0.3 mm
04:40 AM 46.2°F7.9°C 41.3°F5.2°C 83% 1.7 mph NW2.7 kmh NW 3.4 mph5.5 kmh 28.98 in981.4 mb 0.01 in0.3 mm 0.00 in0.0 mm 0.01 in0.3 mm
04:50 AM 46.2°F7.9°C 41.3°F5.2°C 83% 0.4 mph SSW0.6 kmh SSW 3.4 mph5.5 kmh 28.98 in981.4 mb 0.01 in0.3 mm 0.00 in0.0 mm 0.01 in0.3 mm
05:00 AM 46.2°F7.9°C 41.3°F5.2°C 83% 2.4 mph W3.9 kmh W 4.9 mph7.9 kmh 28.97 in981.0 mb 0.01 in0.3 mm 0.00 in0.0 mm 0.01 in0.3 mm
05:10 AM 46.0°F7.8°C 41.2°F5.1°C 83% 0.6 mph WSW1.0 kmh WSW 3.4 mph5.5 kmh 28.97 in981.0 mb 0.01 in0.3 mm 0.00 in0.0 mm 0.02 in0.5 mm
05:20 AM 46.0°F7.8°C 41.2°F5.1°C 83% 1.4 mph SW2.3 kmh SW 3.4 mph5.5 kmh 28.96 in980.7 mb 0.01 in0.3 mm 0.00 in0.0 mm 0.02 in0.5 mm
05:30 AM 46.0°F7.8°C 41.2°F5.1°C 83% 0.5 mph S0.8 kmh S 2.5 mph4.0 kmh 28.96 in980.7 mb 0.02 in0.5 mm 0.06 in1.5 mm 0.04 in1.0 mm
05:40 AM 45.9°F7.7°C 41.3°F5.2°C 84% 0.8 mph W1.3 kmh W 3.4 mph5.5 kmh 28.95 in980.4 mb 0.04 in1.0 mm 0.12 in3.0 mm 0.05 in1.3 mm
05:50 AM 45.9°F7.7°C 41.3°F5.2°C 84% 0.1 mph NW0.2 kmh NW 1.7 mph2.7 kmh 28.94 in980.0 mb 0.05 in1.3 mm 0.06 in1.5 mm 0.06 in1.5 mm
06:00 AM 46.0°F7.8°C 41.5°F5.3°C 84% 0.2 mph S0.3 kmh S 1.7 mph2.7 kmh 28.93 in979.7 mb 0.06 in1.5 mm 0.01 in0.3 mm 0.07 in1.8 mm
06:10 AM 46.2°F7.9°C 41.7°F5.4°C 84% 1.1 mph S1.8 kmh S 2.5 mph4.0 kmh 28.92 in979.3 mb 0.05 in1.3 mm 0.00 in0.0 mm 0.07 in1.8 mm
06:20 AM 46.2°F7.9°C 41.7°F5.4°C 84% 0.6 mph S1.0 kmh S 2.5 mph4.0 kmh 28.92 in979.3 mb 0.06 in1.5 mm 0.06 in1.5 mm 0.08 in2.0 mm
06:30 AM 46.4°F8.0°C 42.1°F5.6°C 85% 0.4 mph N0.6 kmh N 1.7 mph2.7 kmh 28.91 in979.0 mb 0.06 in1.5 mm 0.00 in0.0 mm 0.09 in2.3 mm
06:40 AM 46.6°F8.1°C 42.3°F5.7°C 85% 0.6 mph N1.0 kmh N 1.7 mph2.7 kmh 28.89 in978.3 mb 0.05 in1.3 mm 0.00 in0.0 mm 0.09 in2.3 mm
06:50 AM 46.4°F8.0°C 42.1°F5.6°C 85% 1.5 mph NNE2.4 kmh NNE 2.5 mph4.0 kmh 28.89 in978.3 mb 0.04 in1.0 mm 0.00 in0.0 mm 0.09 in2.3 mm
07:00 AM 46.4°F8.0°C 42.1°F5.6°C 85% 1.3 mph N2.1 kmh N 3.4 mph5.5 kmh 28.88 in978.0 mb 0.02 in0.5 mm 0.00 in0.0 mm 0.09 in2.3 mm
07:10 AM 46.4°F8.0°C 42.4°F5.8°C 86% 2.7 mph NNE4.3 kmh NNE 3.4 mph5.5 kmh 28.87 in977.7 mb 0.01 in0.3 mm 0.00 in0.0 mm 0.09 in2.3 mm
07:20 AM 46.2°F7.9°C 42.3°F5.7°C 86% 1.8 mph NNE2.9 kmh NNE 3.4 mph5.5 kmh 28.86 in977.3 mb 0.02 in0.5 mm 0.06 in1.5 mm 0.11 in2.8 mm
07:30 AM 46.2°F7.9°C 42.3°F5.7°C 86% 1.7 mph NNE2.7 kmh NNE 2.5 mph4.0 kmh 28.85 in977.0 mb 0.01 in0.3 mm 0.00 in0.0 mm 0.11 in2.8 mm
07:40 AM 46.2°F7.9°C 42.3°F5.7°C 86% 2.1 mph NNE3.4 kmh NNE 3.4 mph5.5 kmh 28.85 in977.0 mb 0.02 in0.5 mm 0.06 in1.5 mm 0.12 in3.0 mm
07:50 AM 46.4°F8.0°C 42.4°F5.8°C 86% 0.8 mph NNE1.3 kmh NNE 2.5 mph4.0 kmh 28.84 in976.6 mb 0.02 in0.5 mm 0.00 in0.0 mm 0.12 in3.0 mm
08:00 AM 46.4°F8.0°C 42.7°F5.9°C 87% 0.7 mph N1.1 kmh N 1.7 mph2.7 kmh 28.83 in976.3 mb 0.04 in1.0 mm 0.02 in0.5 mm 0.13 in3.3 mm
08:10 AM 46.6°F8.1°C 42.9°F6.1°C 87% 2.0 mph N3.2 kmh N 2.5 mph4.0 kmh 28.83 in976.3 mb 0.05 in1.3 mm 0.06 in1.5 mm 0.14 in3.6 mm
08:20 AM 46.8°F8.2°C 43.1°F6.2°C 87% 1.7 mph N2.7 kmh N 2.5 mph4.0 kmh 28.82 in976.0 mb 0.05 in1.3 mm 0.00 in0.0 mm 0.15 in3.8 mm
08:30 AM 46.8°F8.2°C 43.1°F6.2°C 87% 1.2 mph NNE1.9 kmh NNE 2.5 mph4.0 kmh 28.82 in976.0 mb 0.06 in1.5 mm 0.06 in1.5 mm 0.17 in4.3 mm
08:40 AM 46.8°F8.2°C 43.1°F6.2°C 87% 2.4 mph NNE3.9 kmh NNE 2.5 mph4.0 kmh 28.81 in975.6 mb 0.06 in1.5 mm 0.00 in0.0 mm 0.18 in4.6 mm
08:50 AM 46.9°F8.3°C 43.6°F6.4°C 88% 3.9 mph NNE6.3 kmh NNE 4.9 mph7.9 kmh 28.80 in975.3 mb 0.07 in1.8 mm 0.06 in1.5 mm 0.19 in4.8 mm
09:00 AM 46.9°F8.3°C 43.6°F6.4°C 88% 4.9 mph NE7.9 kmh NE 4.9 mph7.9 kmh 28.79 in974.9 mb 0.07 in1.8 mm 0.00 in0.0 mm 0.20 in5.1 mm
09:10 AM 46.8°F8.2°C 43.4°F6.3°C 88% 2.3 mph N3.7 kmh N 3.4 mph5.5 kmh 28.78 in974.6 mb 0.07 in1.8 mm 0.00 in0.0 mm 0.21 in5.3 mm
09:20 AM 46.8°F8.2°C 43.4°F6.3°C 88% 3.4 mph NE5.5 kmh NE 4.2 mph6.8 kmh 28.78 in974.6 mb 0.07 in1.8 mm 0.00 in0.0 mm 0.22 in5.6 mm
09:30 AM 46.9°F8.3°C 43.6°F6.4°C 88% 2.6 mph NE4.2 kmh NE 3.4 mph5.5 kmh 28.77 in974.3 mb 0.07 in1.8 mm 0.00 in0.0 mm 0.24 in6.1 mm
09:40 AM 47.3°F8.5°C 44.2°F6.8°C 89% 3.3 mph NE5.3 kmh NE 4.2 mph6.8 kmh 28.77 in974.3 mb 0.07 in1.8 mm 0.00 in0.0 mm 0.25 in6.4 mm
09:50 AM 47.3°F8.5°C 44.2°F6.8°C 89% 2.2 mph NNE3.5 kmh NNE 4.2 mph6.8 kmh 28.76 in973.9 mb 0.06 in1.5 mm 0.00 in0.0 mm 0.25 in6.4 mm
10:00 AM 47.1°F8.4°C 44.0°F6.7°C 89% 0.3 mph ENE0.5 kmh ENE 1.7 mph2.7 kmh 28.76 in973.9 mb 0.06 in1.5 mm 0.00 in0.0 mm 0.26 in6.6 mm
10:10 AM 47.1°F8.4°C 44.0°F6.7°C 89% 0.5 mph NE0.8 kmh NE 1.7 mph2.7 kmh 28.76 in973.9 mb 0.06 in1.5 mm 0.00 in0.0 mm 0.27 in6.9 mm
10:20 AM 46.8°F8.2°C 43.7°F6.5°C 89% 0.6 mph NE1.0 kmh NE 1.7 mph2.7 kmh 28.75 in973.6 mb 0.06 in1.5 mm 0.00 in0.0 mm 0.28 in7.1 mm
10:30 AM 46.6°F8.1°C 43.5°F6.4°C 89% 1.9 mph NE3.1 kmh NE 2.5 mph4.0 kmh 28.74 in973.2 mb 0.05 in1.3 mm 0.00 in0.0 mm 0.28 in7.1 mm
10:40 AM 46.6°F8.1°C 43.5°F6.4°C 89% 1.6 mph E2.6 kmh E 3.4 mph5.5 kmh 28.74 in973.2 mb 0.05 in1.3 mm 0.00 in0.0 mm 0.30 in7.6 mm
10:50 AM 46.4°F8.0°C 43.3°F6.3°C 89% 1.1 mph WNW1.8 kmh WNW 2.5 mph4.0 kmh 28.73 in972.9 mb 0.05 in1.3 mm 0.00 in0.0 mm 0.30 in7.6 mm
11:00 AM 46.4°F8.0°C 43.3°F6.3°C 89% 2.1 mph NE3.4 kmh NE 3.4 mph5.5 kmh 28.74 in973.2 mb 0.05 in1.3 mm 0.00 in0.0 mm 0.31 in7.9 mm
11:10 AM 46.6°F8.1°C 43.5°F6.4°C 89% 1.9 mph SE3.1 kmh SE 3.4 mph5.5 kmh 28.73 in972.9 mb 0.05 in1.3 mm 0.00 in0.0 mm 0.32 in8.1 mm
11:20 AM 46.8°F8.2°C 43.7°F6.5°C 89% 2.8 mph WSW4.5 kmh WSW 4.2 mph6.8 kmh 28.73 in972.9 mb 0.05 in1.3 mm 0.00 in0.0 mm 0.33 in8.4 mm
11:30 AM 46.8°F8.2°C 43.7°F6.5°C 89% 2.8 mph SSE4.5 kmh SSE 4.2 mph6.8 kmh 28.73 in972.9 mb 0.06 in1.5 mm 0.06 in1.5 mm 0.34 in8.6 mm
11:40 AM 46.8°F8.2°C 43.7°F6.5°C 89% 5.5 mph S8.9 kmh S 8.4 mph13.5 kmh 28.74 in973.2 mb 0.07 in1.8 mm 0.06 in1.5 mm 0.37 in9.4 mm
11:50 AM 46.6°F8.1°C 43.5°F6.4°C 89% 5.1 mph SSW8.2 kmh SSW 8.4 mph13.5 kmh 28.73 in972.9 mb 0.08 in2.0 mm 0.06 in1.5 mm 0.38 in9.7 mm
12:00 PM 46.4°F8.0°C 43.3°F6.3°C 89% 4.0 mph SSE6.4 kmh SSE 4.9 mph7.9 kmh 28.72 in972.6 mb 0.09 in2.3 mm 0.01 in0.3 mm 0.40 in10.2 mm
12:10 PM 46.2°F7.9°C 43.2°F6.2°C 89% 3.9 mph S6.3 kmh S 4.9 mph7.9 kmh 28.73 in972.9 mb 0.08 in2.0 mm 0.00 in0.0 mm 0.40 in10.2 mm
12:20 PM 46.2°F7.9°C 43.2°F6.2°C 89% 4.2 mph S6.8 kmh S 6.6 mph10.6 kmh 28.73 in972.9 mb 0.07 in1.8 mm 0.00 in0.0 mm 0.40 in10.2 mm
12:30 PM 46.0°F7.8°C 43.0°F6.1°C 89% 3.9 mph SSE6.3 kmh SSE 4.9 mph7.9 kmh 28.73 in972.9 mb 0.07 in1.8 mm 0.00 in0.0 mm 0.41 in10.4 mm
12:40 PM 46.0°F7.8°C 43.0°F6.1°C 89% 4.0 mph SW6.4 kmh SW 4.9 mph7.9 kmh 28.74 in973.2 mb 0.05 in1.3 mm 0.00 in0.0 mm 0.41 in10.4 mm
12:50 PM 45.9°F7.7°C 42.8°F6.0°C 89% 5.3 mph SE8.5 kmh SE 6.6 mph10.6 kmh 28.74 in973.2 mb 0.04 in1.0 mm 0.00 in0.0 mm 0.41 in10.4 mm
01:00 PM 45.9°F7.7°C 42.8°F6.0°C 89% 3.7 mph NW6.0 kmh NW 5.9 mph9.5 kmh 28.74 in973.2 mb 0.01 in0.3 mm 0.00 in0.0 mm 0.41 in10.4 mm
01:10 PM 46.0°F7.8°C 43.0°F6.1°C 89% 5.8 mph S9.3 kmh S 7.6 mph12.2 kmh 28.74 in973.2 mb 0.01 in0.3 mm 0.00 in0.0 mm 0.41 in10.4 mm
01:20 PM 46.2°F7.9°C 43.2°F6.2°C 89% 4.5 mph WSW7.2 kmh WSW 5.9 mph9.5 kmh 28.75 in973.6 mb 0.01 in0.3 mm 0.00 in0.0 mm 0.41 in10.4 mm
01:30 PM 46.2°F7.9°C 43.2°F6.2°C 89% 6.0 mph SW9.7 kmh SW 7.6 mph12.2 kmh 28.76 in973.9 mb 0.00 in0.0 mm 0.00 in0.0 mm 0.41 in10.4 mm
01:40 PM 46.0°F7.8°C 43.0°F6.1°C 89% 4.9 mph WSW7.9 kmh WSW 5.9 mph9.5 kmh 28.75 in973.6 mb 0.00 in0.0 mm 0.00 in0.0 mm 0.41 in10.4 mm
01:50 PM 46.0°F7.8°C 43.0°F6.1°C 89% 4.5 mph SW7.2 kmh SW 5.9 mph9.5 kmh 28.76 in973.9 mb 0.00 in0.0 mm 0.00 in0.0 mm 0.41 in10.4 mm
02:00 PM 46.0°F7.8°C 43.0°F6.1°C 89% 4.0 mph SW6.4 kmh SW 5.9 mph9.5 kmh 28.76 in973.9 mb 0.00 in0.0 mm 0.00 in0.0 mm 0.41 in10.4 mm
02:10 PM 45.9°F7.7°C 42.8°F6.0°C 89% 6.0 mph WSW9.7 kmh WSW 7.6 mph12.2 kmh 28.76 in973.9 mb 0.00 in0.0 mm 0.00 in0.0 mm 0.41 in10.4 mm
02:20 PM 45.7°F7.6°C 42.6°F5.9°C 89% 5.9 mph SW9.5 kmh SW 6.6 mph10.6 kmh 28.77 in974.3 mb 0.00 in0.0 mm 0.00 in0.0 mm 0.41 in10.4 mm
02:30 PM 45.7°F7.6°C 42.6°F5.9°C 89% 5.6 mph WSW9.0 kmh WSW 7.6 mph12.2 kmh 28.77 in974.3 mb 0.01 in0.3 mm 0.06 in1.5 mm 0.43 in10.9 mm
02:40 PM 45.5°F7.5°C 42.4°F5.8°C 89% 5.0 mph SSW8.0 kmh SSW 5.9 mph9.5 kmh 28.78 in974.6 mb 0.01 in0.3 mm 0.00 in0.0 mm 0.43 in10.9 mm
02:50 PM 45.5°F7.5°C 42.4°F5.8°C 89% 5.4 mph WSW8.7 kmh WSW 7.6 mph12.2 kmh 28.79 in974.9 mb 0.01 in0.3 mm 0.00 in0.0 mm 0.43 in10.9 mm
03:00 PM 45.5°F7.5°C 42.4°F5.8°C 89% 5.4 mph SW8.7 kmh SW 5.9 mph9.5 kmh 28.78 in974.6 mb 0.01 in0.3 mm 0.00 in0.0 mm 0.43 in10.9 mm
03:10 PM 45.5°F7.5°C 42.4°F5.8°C 89% 6.3 mph SSW10.1 kmh SSW 8.4 mph13.5 kmh 28.79 in974.9 mb 0.02 in0.5 mm 0.06 in1.5 mm 0.44 in11.2 mm
03:20 PM 45.3°F7.4°C 42.3°F5.7°C 89% 7.2 mph SSW11.6 kmh SSW 8.4 mph13.5 kmh 28.79 in974.9 mb 0.04 in1.0 mm 0.12 in3.0 mm 0.45 in11.4 mm
03:30 PM 45.3°F7.4°C 42.3°F5.7°C 89% 5.5 mph SW8.9 kmh SW 5.9 mph9.5 kmh 28.79 in974.9 mb 0.02 in0.5 mm 0.00 in0.0 mm 0.45 in11.4 mm
03:40 PM 45.3°F7.4°C 42.3°F5.7°C 89% 5.5 mph SW8.9 kmh SW 10.1 mph16.3 kmh 28.80 in975.3 mb 0.04 in1.0 mm 0.12 in3.0 mm 0.46 in11.7 mm
03:50 PM 45.1°F7.3°C 42.1°F5.6°C 89% 6.6 mph S10.6 kmh S 7.6 mph12.2 kmh 28.80 in975.3 mb 0.04 in1.0 mm 0.00 in0.0 mm 0.46 in11.7 mm
04:00 PM 45.1°F7.3°C 42.1°F5.6°C 89% 6.1 mph S9.8 kmh S 5.9 mph9.5 kmh 28.81 in975.6 mb 0.04 in1.0 mm 0.00 in0.0 mm 0.46 in11.7 mm
04:10 PM 45.0°F7.2°C 41.9°F5.5°C 89% 5.5 mph SW8.9 kmh SW 5.9 mph9.5 kmh 28.80 in975.3 mb 0.04 in1.0 mm 0.00 in0.0 mm 0.47 in11.9 mm
04:20 PM 45.0°F7.2°C 41.9°F5.5°C 89% 4.9 mph SW7.9 kmh SW 5.9 mph9.5 kmh 28.81 in975.6 mb 0.04 in1.0 mm 0.00 in0.0 mm 0.48 in12.2 mm
04:30 PM 44.6°F7.0°C 41.6°F5.3°C 89% 5.9 mph W9.5 kmh W 6.6 mph10.6 kmh 28.82 in976.0 mb 0.05 in1.3 mm 0.06 in1.5 mm 0.50 in12.7 mm
04:40 PM 44.2°F6.8°C 42.1°F5.6°C 92% 6.9 mph SSE11.1 kmh SSE 8.4 mph13.5 kmh 28.82 in976.0 mb 0.05 in1.3 mm 0.00 in0.0 mm 0.51 in13.0 mm
04:50 PM 43.9°F6.6°C 41.7°F5.4°C 92% 6.1 mph S9.8 kmh S 5.9 mph9.5 kmh 28.82 in976.0 mb 0.06 in1.5 mm 0.06 in1.5 mm 0.52 in13.2 mm
05:00 PM 43.5°F6.4°C 41.4°F5.2°C 92% 6.7 mph S10.8 kmh S 9.1 mph14.6 kmh 28.83 in976.3 mb 0.07 in1.8 mm 0.01 in0.3 mm 0.53 in13.5 mm
05:10 PM 43.2°F6.2°C 41.0°F5.0°C 92% 6.6 mph WSW10.6 kmh WSW 5.9 mph9.5 kmh 28.84 in976.6 mb 0.07 in1.8 mm 0.00 in0.0 mm 0.54 in13.7 mm
05:20 PM 42.8°F6.0°C 40.6°F4.8°C 92% 5.5 mph WSW8.9 kmh WSW 7.6 mph12.2 kmh 28.84 in976.6 mb 0.07 in1.8 mm 0.00 in0.0 mm 0.56 in14.2 mm
05:30 PM 42.4°F5.8°C 40.3°F4.6°C 92% 5.3 mph WSW8.5 kmh WSW 6.6 mph10.6 kmh 28.85 in977.0 mb 0.07 in1.8 mm 0.00 in0.0 mm 0.57 in14.5 mm
05:40 PM 42.4°F5.8°C 40.3°F4.6°C 92% 3.9 mph SSW6.3 kmh SSW 4.2 mph6.8 kmh 28.85 in977.0 mb 0.06 in1.5 mm 0.00 in0.0 mm 0.57 in14.5 mm
05:50 PM 42.6°F5.9°C 40.5°F4.7°C 92% 4.6 mph SW7.4 kmh SW 6.6 mph10.6 kmh 28.85 in977.0 mb 0.06 in1.5 mm 0.00 in0.0 mm 0.58 in14.7 mm
06:00 PM 42.6°F5.9°C 40.5°F4.7°C 92% 5.1 mph SW8.2 kmh SW 5.9 mph9.5 kmh 28.86 in977.3 mb 0.06 in1.5 mm 0.00 in0.0 mm 0.59 in15.0 mm
06:10 PM 42.6°F5.9°C 40.5°F4.7°C 92% 4.8 mph SW7.7 kmh SW 4.9 mph7.9 kmh 28.87 in977.7 mb 0.05 in1.3 mm 0.00 in0.0 mm 0.59 in15.0 mm
06:20 PM 42.6°F5.9°C 40.5°F4.7°C 92% 6.2 mph WSW10.0 kmh WSW 8.4 mph13.5 kmh 28.87 in977.7 mb 0.05 in1.3 mm 0.00 in0.0 mm 0.60 in15.2 mm
06:30 PM 42.6°F5.9°C 40.5°F4.7°C 92% 6.9 mph SW11.1 kmh SW 7.6 mph12.2 kmh 28.88 in978.0 mb 0.04 in1.0 mm 0.00 in0.0 mm 0.60 in15.2 mm
06:40 PM 42.8°F6.0°C 40.6°F4.8°C 92% 5.9 mph W9.5 kmh W 7.6 mph12.2 kmh 28.88 in978.0 mb 0.05 in1.3 mm 0.06 in1.5 mm 0.61 in15.5 mm
06:50 PM 42.8°F6.0°C 40.6°F4.8°C 92% 8.2 mph S13.2 kmh S 8.4 mph13.5 kmh 28.89 in978.3 mb 0.05 in1.3 mm 0.00 in0.0 mm 0.63 in16.0 mm
07:00 PM 42.8°F6.0°C 40.6°F4.8°C 92% 8.2 mph SW13.2 kmh SW 8.4 mph13.5 kmh 28.89 in978.3 mb 0.04 in1.0 mm 0.00 in0.0 mm 0.63 in16.0 mm
07:10 PM 42.8°F6.0°C 40.6°F4.8°C 92% 9.6 mph WNW15.4 kmh WNW 8.4 mph13.5 kmh 28.89 in978.3 mb 0.05 in1.3 mm 0.06 in1.5 mm 0.64 in16.3 mm
07:20 PM 42.8°F6.0°C 40.6°F4.8°C 92% 7.9 mph S12.7 kmh S 10.1 mph16.3 kmh 28.89 in978.3 mb 0.04 in1.0 mm 0.00 in0.0 mm 0.64 in16.3 mm
07:30 PM 42.8°F6.0°C 40.6°F4.8°C 92% 9.7 mph WSW15.6 kmh WSW 10.8 mph17.4 kmh 28.90 in978.7 mb 0.04 in1.0 mm 0.00 in0.0 mm 0.64 in16.3 mm
07:40 PM 42.8°F6.0°C 40.6°F4.8°C 92% 8.0 mph WSW12.9 kmh WSW 10.1 mph16.3 kmh 28.90 in978.7 mb 0.02 in0.5 mm 0.00 in0.0 mm 0.64 in16.3 mm
07:50 PM 42.8°F6.0°C 40.6°F4.8°C 92% 8.6 mph S13.8 kmh S 11.8 mph19.0 kmh 28.90 in978.7 mb 0.01 in0.3 mm 0.00 in0.0 mm 0.64 in16.3 mm
08:00 PM 42.8°F6.0°C 40.6°F4.8°C 92% 10.2 mph SW16.4 kmh SW 10.1 mph16.3 kmh 28.91 in979.0 mb 0.01 in0.3 mm 0.00 in0.0 mm 0.64 in16.3 mm
08:10 PM 42.8°F6.0°C 40.6°F4.8°C 92% 8.9 mph SSE14.3 kmh SSE 12.5 mph20.1 kmh 28.92 in979.3 mb 0.00 in0.0 mm 0.00 in0.0 mm 0.64 in16.3 mm
08:20 PM 42.6°F5.9°C 40.5°F4.7°C 92% 8.5 mph SW13.7 kmh SW 7.6 mph12.2 kmh 28.92 in979.3 mb 0.00 in0.0 mm 0.00 in0.0 mm 0.64 in16.3 mm
08:30 PM 42.6°F5.9°C 40.5°F4.7°C 92% 8.3 mph SSW13.4 kmh SSW 11.8 mph19.0 kmh 28.92 in979.3 mb 0.00 in0.0 mm 0.00 in0.0 mm 0.64 in16.3 mm
08:40 PM 42.6°F5.9°C 40.5°F4.7°C 92% 7.7 mph NW12.4 kmh NW 11.8 mph19.0 kmh 28.93 in979.7 mb 0.00 in0.0 mm 0.00 in0.0 mm 0.64 in16.3 mm
08:50 PM 42.6°F5.9°C 40.5°F4.7°C 92% 6.5 mph SSW10.5 kmh SSW 7.6 mph12.2 kmh 28.93 in979.7 mb 0.00 in0.0 mm 0.00 in0.0 mm 0.64 in16.3 mm
09:00 PM 42.6°F5.9°C 40.5°F4.7°C 92% 7.9 mph SSW12.7 kmh SSW 9.1 mph14.6 kmh 28.93 in979.7 mb 0.00 in0.0 mm 0.00 in0.0 mm 0.64 in16.3 mm
09:10 PM 42.4°F5.8°C 40.3°F4.6°C 92% 5.2 mph S8.4 kmh S 7.6 mph12.2 kmh 28.94 in980.0 mb 0.00 in0.0 mm 0.00 in0.0 mm 0.64 in16.3 mm
09:20 PM 42.3°F5.7°C 40.1°F4.5°C 92% 6.8 mph SW10.9 kmh SW 8.4 mph13.5 kmh 28.94 in980.0 mb 0.00 in0.0 mm 0.00 in0.0 mm 0.64 in16.3 mm
09:30 PM 42.1°F5.6°C 39.9°F4.4°C 92% 6.4 mph S10.3 kmh S 10.8 mph17.4 kmh 28.95 in980.4 mb 0.00 in0.0 mm 0.00 in0.0 mm 0.64 in16.3 mm
09:40 PM 41.5°F5.3°C 39.1°F3.9°C 91% 7.6 mph S12.2 kmh S 9.1 mph14.6 kmh 28.95 in980.4 mb 0.00 in0.0 mm 0.00 in0.0 mm 0.64 in16.3 mm
09:50 PM 41.4°F5.2°C 38.9°F3.8°C 91% 7.5 mph SSW12.1 kmh SSW 8.4 mph13.5 kmh 28.95 in980.4 mb 0.00 in0.0 mm 0.00 in0.0 mm 0.64 in16.3 mm
10:00 PM 41.2°F5.1°C 38.8°F3.8°C 91% 7.2 mph SW11.6 kmh SW 7.6 mph12.2 kmh 28.95 in980.4 mb 0.00 in0.0 mm 0.00 in0.0 mm 0.64 in16.3 mm
10:10 PM 41.0°F5.0°C 38.6°F3.7°C 91% 5.4 mph SW8.7 kmh SW 8.4 mph13.5 kmh 28.96 in980.7 mb 0.00 in0.0 mm 0.00 in0.0 mm 0.64 in16.3 mm
10:20 PM 40.8°F4.9°C 38.4°F3.6°C 91% 5.6 mph SW9.0 kmh SW 5.9 mph9.5 kmh 28.96 in980.7 mb 0.00 in0.0 mm 0.00 in0.0 mm 0.64 in16.3 mm
10:30 PM 40.5°F4.7°C 38.0°F3.3°C 91% 6.1 mph S9.8 kmh S 6.6 mph10.6 kmh 28.97 in981.0 mb 0.00 in0.0 mm 0.00 in0.0 mm 0.64 in16.3 mm
10:40 PM 40.5°F4.7°C 38.0°F3.3°C 91% 7.7 mph S12.4 kmh S 9.1 mph14.6 kmh 28.97 in981.0 mb 0.00 in0.0 mm 0.00 in0.0 mm 0.64 in16.3 mm
10:50 PM 40.3°F4.6°C 37.9°F3.3°C 91% 6.8 mph SSE10.9 kmh SSE 7.6 mph12.2 kmh 28.97 in981.0 mb 0.00 in0.0 mm 0.00 in0.0 mm 0.64 in16.3 mm
11:00 PM 40.3°F4.6°C 37.9°F3.3°C 91% 7.4 mph S11.9 kmh S 9.1 mph14.6 kmh 28.98 in981.4 mb 0.00 in0.0 mm 0.00 in0.0 mm 0.64 in16.3 mm
11:10 PM 40.3°F4.6°C 37.9°F3.3°C 91% 9.2 mph SW14.8 kmh SW 9.1 mph14.6 kmh 28.98 in981.4 mb 0.00 in0.0 mm 0.00 in0.0 mm 0.64 in16.3 mm
11:20 PM 40.3°F4.6°C 37.9°F3.3°C 91% 7.5 mph SSE12.1 kmh SSE 8.4 mph13.5 kmh 28.98 in981.4 mb 0.00 in0.0 mm 0.00 in0.0 mm 0.64 in16.3 mm
11:30 PM 40.3°F4.6°C 37.9°F3.3°C 91% 7.3 mph SSW11.7 kmh SSW 7.6 mph12.2 kmh 28.98 in981.4 mb 0.00 in0.0 mm 0.00 in0.0 mm 0.64 in16.3 mm
11:40 PM 40.3°F4.6°C 37.9°F3.3°C 91% 6.7 mph SSW10.8 kmh SSW 7.6 mph12.2 kmh 28.99 in981.7 mb 0.00 in0.0 mm 0.00 in0.0 mm 0.64 in16.3 mm
11:50 PM 40.1°F4.5°C 37.7°F3.2°C 91% 6.6 mph WSW10.6 kmh WSW 8.4 mph13.5 kmh 28.99 in981.7 mb 0.00 in0.0 mm 0.00 in0.0 mm 0.64 in16.3 mm